Latest Coastal Weather Observations for Maatsuyker Island

IDT60701

Issued at 2:21 am EST Wednesday 2 September 2015 (issued every 10 minutes, with the page automatically refreshed every 10 minutes)

About coastal observations | Map of coastal stations | Coastal observations for TAS | Marine services | Other Formats
Station Details ID: 094041 Name: MAATSUYKER ISLAND LIGHTHOUSE Lat: -43.66 Lon: 146.27 Height: 146.5 m
Data from the previous 72 hours. | See also: Recent months at Maatsuyker Island
Date/Time
EST
Temp

°C
Wind Pressure Rain
since 9am
mm
Weather Cloud Vis
km
Sea
Height
m
Swell
Dir
 
Speed
knots
Gust
knots
hPa Trend Height
m
Period
s
Dir
02/02:00am 7.7 N 6 8 1012.8 - 0.2 - - - - - - -
02/01:30am 7.8 NNW 5 6 1013.3 - 0.2 - - - - - - -
02/01:00am 7.9 NW 5 7 1013.4 - 0.2 - - - - - - -
02/12:30am 7.8 N 5 6 1013.4 - 0.2 - - - - - - -
02/12:00am 7.9 NNW 7 8 1013.6 - 0.2 - - - - - - -
 
Date/Time
EST
Temp

°C
Wind Pressure Rain
since 9am
mm
Weather Cloud Vis
km
Sea
Height
m
Swell
Dir
 
Speed
knots
Gust
knots
hPa Trend Height
m
Period
s
Dir
01/11:30pm 7.8 N 6 8 1013.6 - 0.2 - - - - - - -
01/11:00pm 7.7 NNE 4 5 1013.7 - 0.2 - - - - - - -
01/10:30pm 7.8 NNE 5 10 1013.5 - 0.2 - - - - - - -
01/10:00pm 7.9 E 7 12 1013.7 - 0.2 - - - - - - -
01/09:30pm 7.8 E 7 13 1013.6 - 0.2 - - - - - - -
01/09:00pm 7.7 NW 4 7 1013.5 - 0.2 - - - - - - -
01/08:30pm 7.7 WNW 4 7 1013.1 - 0.2 - - - - - - -
01/08:00pm 7.6 WNW 4 6 1013.1 - 0.2 - - - - - - -
01/07:30pm 7.8 NW 3 8 1013.3 - 0.2 - - - - - - -
01/07:00pm 8.3 NNW 3 5 1013.7 - 0.2 - - - - - - -
01/06:30pm 8.3 NW 4 11 1013.4 - 0.2 - - - - - - -
01/06:00pm 8.3 WNW 3 5 1013.2 - 0.2 - - - - - - -
01/05:30pm 8.6 NW 3 6 1013.1 - 0.2 - - - - - - -
01/05:00pm 9.5 NW 1 5 1013.2 - 0.2 - - - - - - -
01/04:30pm 9.8 CALM 0 3 1013.5 - 0.2 - - - - - - -
01/04:00pm 10.6 N 3 7 1013.4 - 0.2 - - - - - - -
01/03:30pm 11.1 NNW 2 5 1013.8 - 0.2 - - - - - - -
01/03:00pm 11.0 N 4 6 1014.0 - 0.2 - - - - - - -
01/02:30pm 11.0 NNW 4 6 1014.0 - 0.2 - - - - - - -
01/02:00pm 11.0 NNW 4 8 1013.9 - 0.2 - - - - - - -
01/01:30pm 10.2 NNW 5 9 1014.0 - 0.0 - - - - - - -
01/01:00pm 9.6 NNW 4 7 1014.4 - 0.0 - - - - - - -
01/12:30pm 10.0 NNW 3 5 1014.9 - 0.0 - - - - - - -
01/12:00pm 8.8 NNE 3 7 1015.5 - 0.0 - - - - - - -
01/11:30am 8.7 N 2 4 1015.7 - 0.0 - - - - - - -
01/11:00am 9.6 NNE 3 5 1015.9 - 0.0 - - - - - - -
01/10:30am 7.9 S 3 4 1016.1 - 0.0 - - - - - - -
01/10:00am 7.9 S 3 4 1016.5 - 0.0 - - - - - - -
01/09:30am 7.7 S 3 5 1016.5 - 0.0 - - - - - - -
01/09:00am 7.7 N 3 5 1016.7 - 0.6 - - - - - - -
01/08:30am 7.7 ESE 3 6 1016.5 - 0.6 - - - - - - -
01/08:00am 7.6 SSE 1 5 1016.5 - 0.6 - - - - - - -
01/07:30am 7.2 E 1 3 1016.4 - 0.6 - - - - - - -
01/07:00am 7.0 CALM 0 0 1016.5 - 0.6 - - - - - - -
01/06:30am 6.9 NE 2 5 1016.2 - 0.6 - - - - - - -
01/06:00am 6.6 CALM 0 0 1016.5 - 0.6 - - - - - - -
01/05:30am 6.8 ESE 1 3 1016.4 - 0.6 - - - - - - -
01/05:00am 6.5 NNE 1 4 1016.6 - 0.6 - - - - - - -
01/04:30am 6.9 ENE 4 6 1016.6 - 0.6 - - - - - - -
01/04:00am 6.6 NW 1 4 1016.8 - 0.6 - - - - - - -
01/03:30am 6.3 NNW 1 4 1016.6 - 0.6 - - - - - - -
01/03:00am 6.2 WNW 1 4 1017.0 - 0.6 - - - - - - -
01/02:30am 6.0 NW 1 5 1017.3 - 0.6 - - - - - - -
01/02:00am 6.4 WNW 2 6 1017.6 - 0.6 - - - - - - -
01/01:30am 6.9 NW 3 5 1017.8 - 0.6 - - - - - - -
01/01:00am 6.8 WNW 3 5 1018.0 - 0.6 - - - - - - -
01/12:30am 7.0 WNW 2 6 1018.1 - 0.6 - - - - - - -
01/12:00am 7.1 NNW 4 6 1018.3 - 0.6 - - - - - - -
 
Date/Time
EST
Temp

°C
Wind Pressure Rain
since 9am
mm
Weather Cloud Vis
km
Sea
Height
m
Swell
Dir
 
Speed
knots
Gust
knots
hPa Trend Height
m
Period
s
Dir
31/11:30pm 7.0 NNW 4 7 1018.3 - 0.6 - - - - - - -
31/11:00pm 7.4 NW 4 7 1018.6 - 0.6 - - - - - - -
31/10:30pm 7.6 NNW 4 7 1018.9 - 0.6 - - - - - - -
31/10:00pm 7.5 NW 4 9 1019.1 - 0.6 - - - - - - -
31/09:30pm 7.6 WNW 5 10 1019.2 - 0.6 - - - - - - -
31/09:00pm 7.7 NW 4 9 1019.5 - 0.6 - - - - - - -
31/08:30pm 7.4 N 3 5 1019.5 - 0.6 - - - - - - -
31/08:00pm 7.5 WNW 6 9 1019.3 - 0.2 - - - - - - -
31/07:30pm 7.5 NW 4 7 1019.5 - 0.0 - - - - - - -
31/07:00pm 7.6 NW 4 7 1019.3 - 0.0 - - - - - - -
31/06:30pm 7.7 WNW 5 9 1019.1 - 0.0 - - - - - - -
31/06:00pm 7.8 NW 4 9 1019.3 - 0.0 - - - - - - -
31/05:30pm 8.0 NNW 2 4 1019.3 - 0.0 - - - - - - -
31/05:00pm 8.1 N 3 5 1019.4 - 0.0 - - - - - - -
31/04:30pm 8.7 N 3 5 1019.7 - 0.0 - - - - - - -
31/04:00pm 8.9 NW 2 5 1019.7 - 0.0 - - - - - - -
31/03:30pm 8.9 NNW 3 5 1019.5 - 0.0 - - - - - - -
31/03:00pm 9.7 NNW 4 7 1019.8 - 0.0 - - - - - - -
31/02:30pm 9.3 NW 3 6 1019.8 - 0.0 - - - - - - -
31/02:00pm 9.9 NW 4 7 1020.0 - 0.0 - - - - - - -
31/01:30pm 10.3 NNW 4 7 1020.4 - 0.0 - - - - - - -
31/01:00pm 9.7 NW 3 7 1020.5 - 0.0 - - - - - - -
31/12:30pm 9.8 NW 3 7 1020.7 - 0.0 - - - - - - -
31/12:00pm 9.8 NNW 3 6 1021.4 - 0.0 - - - - - - -
31/11:30am 9.4 NNW 4 8 1021.5 - 0.0 - - - - - - -
31/11:00am 8.3 NW 4 7 1021.3 - 0.0 - - - - - - -
31/10:30am 8.4 NW 4 9 1021.4 - 0.0 - - - - - - -
31/10:00am 8.7 NW 4 7 1021.7 - 0.0 - - - - - - -
31/09:30am 7.6 NW 4 7 1021.8 - 0.0 - - - - - - -
31/09:00am 7.5 NW 5 9 1022.2 - 1.6 - - - - - - -
31/08:30am 6.9 NW 5 8 1022.1 - 1.6 - - - - - - -
31/08:00am 6.5 NW 4 8 1022.1 - 1.6 - - - - - - -
31/07:30am 6.5 WNW 7 15 1021.6 - 1.6 - - - - - - -
31/07:00am 6.5 WNW 6 11 1021.5 - 1.4 - - - - - - -
31/06:30am 6.5 NNW 5 11 1021.7 - 1.4 - - - - - - -
31/06:00am 6.7 NNW 5 9 1021.9 - 1.4 - - - - - - -
31/05:30am 6.3 NNW 3 9 1021.8 - 1.4 - - - - - - -
31/05:00am 6.7 NW 3 6 1022.1 - 1.0 - - - - - - -
31/04:30am 6.5 NNW 4 8 1022.2 - 1.0 - - - - - - -
31/04:00am 6.6 NNW 4 8 1022.3 - 1.0 - - - - - - -
31/03:30am 6.5 N 4 6 1022.4 - 1.0 - - - - - - -
31/03:00am 7.0 NNW 4 7 1022.8 - 1.0 - - - - - - -
31/02:30am 7.2 NW 4 8 1022.7 - 1.0 - - - - - - -
31/02:00am 7.0 NNW 4 6 1023.1 - 1.0 - - - - - - -
31/01:30am 7.1 NNW 5 8 1023.5 - 1.0 - - - - - - -
31/01:00am 6.9 NNW 4 8 1023.5 - 1.0 - - - - - - -
31/12:30am 6.9 NW 5 10 1023.5 - 1.0 - - - - - - -
31/12:00am 6.9 WNW 6 13 1023.7 - 1.0 - - - - - - -
 
Date/Time
EST
Temp

°C
Wind Pressure Rain
since 9am
mm
Weather Cloud Vis
km
Sea
Height
m
Swell
Dir
 
Speed
knots
Gust
knots
hPa Trend Height
m
Period
s
Dir
30/11:30pm 7.0 NW 6 11 1023.9 - 1.0 - - - - - - -
30/11:00pm 6.8 NNW 5 8 1024.4 - 0.8 - - - - - - -
30/10:30pm 6.8 NW 5 9 1024.5 - 0.6 - - - - - - -
30/10:00pm 7.1 NNW 5 9 1024.6 - 0.4 - - - - - - -
30/09:30pm 7.2 NNW 5 7 1024.6 - 0.4 - - - - - - -
30/09:00pm 7.1 NW 5 13 1024.8 - 0.4 - - - - - - -
30/08:30pm 7.3 NW 5 8 1024.6 - 0.4 - - - - - - -
30/08:00pm 6.8 NNW 4 7 1024.6 - 0.4 - - - - - - -
30/07:30pm 7.0 NW 3 6 1024.8 - 0.4 - - - - - - -
30/07:00pm 7.1 NNW 4 9 1024.8 - 0.4 - - - - - - -
30/06:30pm 6.9 NNW 3 5 1024.6 - 0.4 - - - - - - -
30/06:00pm 7.3 NNW 4 6 1024.8 - 0.4 - - - - - - -
30/05:30pm 7.5 NNW 3 6 1024.4 - 0.4 - - - - - - -
30/05:00pm 7.9 N 3 5 1024.4 - 0.4 - - - - - - -
30/04:30pm 7.9 NNW 2 4 1024.5 - 0.4 - - - - - - -
30/04:00pm 8.0 N 3 6 1024.6 - 0.4 - - - - - - -
30/03:30pm 8.1 NNE 5 15 1024.7 - 0.4 - - - - - - -
30/03:00pm 8.8 NNE 4 12 1025.0 - 0.4 - - - - - - -
30/02:30pm 9.3 N 4 6 1024.8 - 0.4 - - - - - - -
30/02:00pm 9.3 NNW 3 6 1024.8 - 0.4 - - - - - - -
30/01:30pm 9.1 N 3 6 1024.9 - 0.4 - - - - - - -
30/01:00pm 8.1 NNW 3 5 1025.2 - 0.4 - - - - - - -
30/12:30pm 7.8 N 3 5 1025.4 - 0.0 - - - - - - -
30/12:00pm 7.5 NNW 2 4 1026.2 - 0.0 - - - - - - -
30/11:30am 8.1 N 2 7 1026.4 - 0.0 - - - - - - -
30/11:00am 7.9 NNW 3 5 1026.4 - 0.0 - - - - - - -
30/10:30am 6.8 NNW 4 6 1026.6 - 0.0 - - - - - - -
30/10:00am 6.9 NE 7 19 1026.6 - 0.0 - - - - - - -
30/09:30am 7.1 NE 6 11 1026.8 - 0.0 - - - - - - -
30/09:00am 6.9 N 5 8 1026.9 - 0.8 - - - - - - -
30/08:30am 6.3 NNE 6 16 1026.6 - 0.8 - - - - - - -
30/08:00am 6.2 N 5 11 1026.4 - 0.8 - - - - - - -
30/07:30am 6.1 NE 7 14 1026.2 - 0.8 - - - - - - -
30/07:00am 6.2 N 6 8 1026.0 - 0.8 - - - - - - -
30/06:30am 6.1 NNE 7 11 1025.8 - 0.6 - - - - - - -
30/06:00am 6.1 NNE 6 15 1026.1 - 0.6 - - - - - - -
30/05:49am 6.2 NNE 8 14 1025.8 - 0.6 - - - - - - -
30/05:45am 6.3 SSE 25 29 1025.6 - 0.4 - - - - - - -
30/05:44am 6.2 SE 15 28 1025.8 - 0.4 - - - - - - -
30/05:30am 6.4 ESE 12 19 1025.6 - 0.4 - - - - - - -
30/05:00am 5.9 NNE 5 11 1025.9 - 0.4 - - - - - - -
30/04:30am 6.0 N 4 10 1025.9 - 0.4 - - - - - - -
30/04:00am 6.2 ENE 10 17 1025.5 - 0.4 - - - - - - -
30/03:30am 6.9 ESE 12 21 1025.5 - 0.0 - - - - - - -
30/03:00am 7.1 E 8 15 1025.7 - 0.0 - - - - - - -
30/02:30am 6.8 N 6 13 1025.8 - 0.0 - - - - - - -

Other Formats:

Comma delimited format used in spreadsheet applications
http://www.bom.gov.au/fwo/IDT60701/IDT60701.94962.axf

JavaScript Object Notation format (JSON) in row-major order
http://www.bom.gov.au/fwo/IDT60701/IDT60701.94962.json